Lacygne, Kansas
Current Conditions -  °F | °C
As of 7:53 PM on Saturday 20 Dec 2014 (Local Time) from KIXD Reporting Station
Haze Haze  
Wind Chill: 27°   Ceiling: Unl
Heat Index: 35°   Visibility: 6mi
Dew Point: 33°   Wind: 10mph
Humidity: 92%   Direction: 160°SSE
Pressure: 30.14"   Gusts: NA
Location:  38.3335°N, 94.7608°W
Report Text: KIXD 210153Z 16009KT 6SM BR CLR 02/01 A3014 RMK AO2 SLP214 T00170006
Loading
Personal Weather Stations






























Interactive Weather Map New forecast layout! Learn more

10-Day Weather Forecast

Advertisements
Track Severe Weather on mobile